Time;durP1;ratioP1;P1;durP2;ratioP2;P2;SDS_P1;SDS_P2;PMS_P1;PMS_P2;Temp;Humidity;BMP_temperature;BMP_pressure;BME280_temperature;BME280_humidity;BME280_pressure;Samples;Min_cycle;Max_cycle;Signal;HPM_P1;HPM_P2
2022/10/23 06:17:33;;;;;;;18.77;15.43;;;17.80;99.90;;;;;;4586934;19;20682;-31
2022/10/23 06:19:04;;;;;;;19.67;16.38;;;17.80;99.90;;;;;;4588828;19;20025;-30
2022/10/23 06:21:12;;;;;;;17.45;15.60;;;17.70;99.90;;;;;;4589118;19;20011;-31
2022/10/23 06:22:45;;;;;;;19.00;16.00;;;17.70;99.90;;;;;;4589673;19;20014;-30
2022/10/23 06:24:28;;;;;;;19.58;10.82;;;17.70;99.90;;;;;;4537163;19;20037;-31
2022/10/23 06:25:59;;;;;;;18.88;16.17;;;17.60;99.90;;;;;;4589019;19;20003;-30
2022/10/23 06:27:30;;;;;;;20.35;15.68;;;17.70;99.90;;;;;;4588637;19;20017;-30
2022/10/23 06:29:16;;;;;;;19.85;16.25;;;17.70;99.90;;;;;;4589728;19;19994;-30
2022/10/23 06:30:47;;;;;;;19.58;15.88;;;17.70;99.90;;;;;;4587914;19;20018;-30
2022/10/23 06:32:19;;;;;;;21.58;17.50;;;17.60;99.90;;;;;;4589096;19;20006;-30
2022/10/23 06:33:55;;;;;;;20.23;16.63;;;17.60;99.90;;;;;;4588916;19;20070;-30
2022/10/23 06:35:44;;;;;;;20.45;16.90;;;17.60;99.90;;;;;;4588070;19;20074;-30
2022/10/23 06:37:16;;;;;;;18.63;16.48;;;17.60;99.90;;;;;;4588914;19;20041;-30
2022/10/23 06:38:48;;;;;;;20.67;17.95;;;17.50;99.90;;;;;;4589433;19;20343;-31
2022/10/23 06:40:19;;;;;;;23.58;18.83;;;17.50;99.90;;;;;;4587366;19;20046;-31
2022/10/23 07:28:57;;;;;;;23.05;17.92;;;17.10;99.90;;;;;;4590414;19;20003;-30
2022/10/23 07:30:30;;;;;;;22.98;17.75;;;17.10;99.90;;;;;;4592494;19;20018;-29
2022/10/23 07:32:01;;;;;;;21.73;19.23;;;17.10;99.90;;;;;;4592033;19;20007;-30
2022/10/23 07:33:32;;;;;;;21.45;18.50;;;17.10;99.90;;;;;;4592990;19;20007;-31
2022/10/23 07:35:04;;;;;;;22.13;18.25;;;17.10;99.90;;;;;;4590817;19;20402;-32
2022/10/23 07:36:35;;;;;;;;;;;17.10;99.90;;;;;;4594117;19;20021;-30
2022/10/23 07:38:06;;;;;;;26.23;18.92;;;17.10;99.90;;;;;;4593194;19;19911;-32
2022/10/23 07:39:40;;;;;;;24.35;19.50;;;17.10;99.90;;;;;;4593127;19;20078;-28
2022/10/23 07:41:12;;;;;;;25.20;19.45;;;17.10;99.90;;;;;;4592184;19;20064;-30
2022/10/23 07:42:45;;;;;;;26.80;23.90;;;17.10;99.90;;;;;;4592717;19;20011;-30
2022/10/23 07:44:16;;;;;;;32.08;25.38;;;16.20;99.90;;;;;;4593067;19;20027;-30
2022/10/23 07:45:52;;;;;;;31.13;24.80;;;15.60;99.90;;;;;;4592515;19;20017;-34
2022/10/23 07:47:23;;;;;;;27.98;22.85;;;15.40;99.90;;;;;;4592526;19;20055;-29
2022/10/23 07:48:54;;;;;;;29.63;24.23;;;15.20;99.90;;;;;;4591604;19;20007;-30
2022/10/23 07:50:25;;;;;;;28.63;23.08;;;15.20;99.90;;;;;;4592506;19;20006;-29
2022/10/23 07:51:57;;;;;;;28.13;22.70;;;15.10;99.90;;;;;;4592068;19;20085;-29
2022/10/23 07:53:28;;;;;;;;;;;15.20;99.90;;;;;;4593265;19;20023;-31
2022/10/23 07:55:00;;;;;;;30.52;21.95;;;15.20;99.90;;;;;;4590751;19;19999;-33
2022/10/23 07:56:31;;;;;;;28.00;22.90;;;15.20;99.90;;;;;;4592262;19;20484;-29
2022/10/23 07:58:10;;;;;;;28.17;21.95;;;15.20;99.90;;;;;;4589102;19;20014;-29
2022/10/23 07:59:43;;;;;;;28.77;23.00;;;15.20;99.90;;;;;;4591175;19;20577;-30
2022/10/23 08:01:19;;;;;;;29.10;23.88;;;15.20;99.90;;;;;;4592310;19;20018;-34
2022/10/23 08:02:53;;;;;;;30.23;24.60;;;15.20;99.90;;;;;;4592737;19;20018;-31
2022/10/23 08:04:25;;;;;;;32.83;26.08;;;15.20;99.90;;;;;;4592123;19;20018;-30
2022/10/23 08:06:12;;;;;;;30.95;24.83;;;15.20;99.90;;;;;;4592202;19;20019;-29
2022/10/23 08:08:03;;;;;;;31.67;24.15;;;15.20;99.90;;;;;;4592523;19;20468;-30
2022/10/23 08:09:56;;;;;;;33.58;27.00;;;15.20;99.90;;;;;;4591959;19;20018;-29
2022/10/23 08:11:34;;;;;;;31.02;26.33;;;15.20;99.90;;;;;;4590940;19;20062;-29
2022/10/23 08:13:19;;;;;;;33.83;26.52;;;15.20;99.90;;;;;;4590491;19;20067;-29
2022/10/23 08:15:14;;;;;;;35.42;27.27;;;15.20;99.90;;;;;;4590001;19;20039;-31
2022/10/23 08:17:11;;;;;;;36.80;28.58;;;15.20;99.90;;;;;;4589589;19;20015;-29
2022/10/23 08:18:49;;;;;;;35.95;29.55;;;15.20;99.90;;;;;;4592230;19;20122;-29
2022/10/23 08:20:21;;;;;;;31.70;25.90;;;15.20;99.90;;;;;;4591211;19;20479;-29
2022/10/23 08:21:56;;;;;;;35.20;28.17;;;15.20;99.90;;;;;;4590920;19;20027;-30
2022/10/23 08:23:36;;;;;;;36.40;29.38;;;15.20;99.90;;;;;;4591551;19;20061;-30
2022/10/23 08:25:20;;;;;;;37.83;28.88;;;15.20;99.90;;;;;;4591666;19;20031;-33
2022/10/23 08:27:21;;;;;;;37.95;28.75;;;15.30;99.90;;;;;;4591095;19;20010;-30
2022/10/23 08:29:21;;;;;;;41.83;28.92;;;15.50;99.90;;;;;;4587165;19;20014;-32
2022/10/23 08:36:51;;;;;;;38.63;27.00;;;16.00;99.90;;;;;;4589213;19;20003;-30
2022/10/23 08:38:34;;;;;;;38.45;26.38;;;16.10;99.90;;;;;;4589670;19;20753;-30
2022/10/23 08:40:47;;;;;;;35.70;24.75;;;16.20;99.90;;;;;;4589662;19;20025;-30
2022/10/23 08:42:53;;;;;;;33.30;24.98;;;16.20;99.90;;;;;;4589058;19;20075;-32
2022/10/23 08:44:57;;;;;;;36.92;25.55;;;16.30;99.90;;;;;;4587030;19;20015;-28
2022/10/23 08:51:57;;;;;;;34.05;25.08;;;16.50;99.90;;;;;;4589015;19;20037;-32
2022/10/23 08:54:31;;;;;;;31.05;23.85;;;16.50;99.90;;;;;;4590082;19;20090;-30
2022/10/23 09:07:31;;;;;;;24.83;19.83;;;16.70;99.90;;;;;;4583620;19;20002;-30
2022/10/23 09:09:39;;;;;;;27.65;20.20;;;16.70;99.90;;;;;;4583252;19;20022;-31
2022/10/23 09:14:34;;;;;;;30.15;24.77;;;16.70;99.90;;;;;;4583632;19;19987;-30
2022/10/23 09:16:30;;;;;;;23.42;19.33;;;16.70;99.90;;;;;;4583197;19;20061;-30
2022/10/23 09:19:01;;;;;;;21.05;17.05;;;16.70;99.90;;;;;;4584271;19;20019;-31
2022/10/23 09:20:35;;;;;;;20.27;18.10;;;16.70;99.90;;;;;;4583398;19;20014;-34
2022/10/23 09:22:15;;;;;;;19.08;16.88;;;16.70;99.90;;;;;;4583226;19;20768;-28
2022/10/23 09:24:31;;;;;;;20.58;17.08;;;16.70;99.90;;;;;;4583930;19;20015;-32
2022/10/23 10:06:30;;;;;;;18.13;16.17;;;17.00;99.90;;;;;;4589907;19;20552;-30
2022/10/23 10:08:21;;;;;;;20.38;18.17;;;16.90;99.90;;;;;;4587291;19;20010;-29
2022/10/23 10:10:33;;;;;;;20.55;15.45;;;16.90;99.90;;;;;;4585862;19;20473;-33
2022/10/23 10:38:40;;;;;;;16.08;13.65;;;17.00;99.90;;;;;;4583513;19;20006;-30
2022/10/23 10:52:52;;;;;;;24.08;21.02;;;16.90;99.90;;;;;;4588468;19;20003;-30
2022/10/23 10:55:01;;;;;;;25.77;23.08;;;16.90;99.90;;;;;;4588944;19;20493;-31
2022/10/23 10:56:33;;;;;;;24.55;21.15;;;16.90;99.90;;;;;;4588067;19;19998;-30
2022/10/23 10:58:50;;;;;;;23.98;21.30;;;16.90;99.90;;;;;;4587111;19;20449;-30
2022/10/23 11:00:22;;;;;;;26.48;21.92;;;16.90;99.90;;;;;;4586296;19;20112;-31
2022/10/23 11:10:44;;;;;;;24.33;20.55;;;16.90;99.90;;;;;;4592680;19;19989;-32
2022/10/23 11:57:10;;;;;;;28.55;21.10;;;16.90;99.90;;;;;;4591552;19;19994;-30
2022/10/23 12:05:08;;;;;;;32.10;26.15;;;16.90;99.90;;;;;;4590269;19;20074;-27
2022/10/23 12:06:45;;;;;;;26.10;22.90;;;16.90;99.90;;;;;;4589836;19;20019;-27
2022/10/23 12:08:24;;;;;;;24.05;19.45;;;16.90;99.90;;;;;;4589684;19;20038;-28
2022/10/23 12:12:51;;;;;;;26.23;22.55;;;17.00;99.90;;;;;;4589133;19;19989;-26
2022/10/23 12:15:05;;;;;;;26.77;21.27;;;17.00;99.90;;;;;;4587406;19;20389;-26
2022/10/23 12:16:41;;;;;;;22.50;19.60;;;17.00;99.90;;;;;;4588758;19;20027;-26
2022/10/23 12:18:16;;;;;;;29.20;25.13;;;17.00;99.90;;;;;;4589753;19;20011;-26
2022/10/23 12:25:33;;;;;;;32.78;23.83;;;16.90;99.90;;;;;;4589435;19;20395;-26
2022/10/23 12:27:25;;;;;;;27.90;22.38;;;16.90;99.90;;;;;;4590545;19;20014;-26
2022/10/23 12:32:24;;;;;;;30.55;23.95;;;16.80;99.90;;;;;;4588912;19;19989;-27
2022/10/23 12:34:06;;;;;;;24.33;21.23;;;16.90;99.90;;;;;;4588197;19;20315;-26
2022/10/23 12:57:33;;;;;;;24.67;22.02;;;16.90;99.90;;;;;;4587935;19;19987;-27
2022/10/23 12:59:37;;;;;;;25.90;23.10;;;16.90;99.90;;;;;;4588246;19;20014;-26
2022/10/23 13:01:48;;;;;;;26.98;23.65;;;16.90;99.90;;;;;;4586893;19;20021;-26
2022/10/23 13:03:21;;;;;;;25.98;23.20;;;16.90;99.90;;;;;;4589257;19;20033;-26
2022/10/23 13:48:25;;;;;;;27.00;24.20;;;15.50;99.90;;;;;;4588090;19;20011;-32
2022/10/23 13:58:17;;;;;;;34.08;30.38;;;15.50;99.90;;;;;;4589384;19;19999;-32
2022/10/23 14:02:47;;;;;;;30.85;23.50;;;15.50;99.90;;;;;;4589664;19;19983;-30
2022/10/23 14:28:39;;;;;;;25.30;21.73;;;15.40;99.90;;;;;;4590276;19;20455;-31
2022/10/23 14:30:13;;;;;;;28.95;25.05;;;15.40;99.90;;;;;;4589109;19;20018;-30
2022/10/23 14:31:48;;;;;;;27.15;24.27;;;15.30;99.90;;;;;;4588492;19;20063;-31
2022/10/23 14:33:19;;;;;;;29.95;26.77;;;15.30;99.90;;;;;;4586725;19;20015;-30
2022/10/23 14:34:53;;;;;;;34.40;30.25;;;15.30;99.90;;;;;;4586258;19;20018;-30
2022/10/23 14:36:24;;;;;;;28.25;25.00;;;15.30;99.90;;;;;;4588713;19;20017;-29
2022/10/23 14:37:57;;;;;;;27.95;24.88;;;15.20;99.90;;;;;;4589186;19;20024;-31
2022/10/23 14:39:29;;;;;;;29.05;25.92;;;15.30;99.90;;;;;;4589878;19;20022;-31
2022/10/23 14:41:00;;;;;;;31.88;28.38;;;15.20;99.90;;;;;;4592702;19;20038;-31
2022/10/23 14:42:33;;;;;;;32.17;28.80;;;15.20;99.90;;;;;;4592315;19;20034;-29
2022/10/23 14:44:04;;;;;;;32.15;28.85;;;15.20;99.90;;;;;;4591308;19;20364;-31
2022/10/23 14:45:36;;;;;;;32.25;27.63;;;15.20;99.90;;;;;;4590482;19;20019;-30
2022/10/23 14:47:07;;;;;;;28.27;25.23;;;15.20;99.90;;;;;;4592762;19;20010;-32
2022/10/23 14:48:38;;;;;;;27.92;24.90;;;15.40;99.90;;;;;;4590873;19;20018;-29
2022/10/23 14:50:10;;;;;;;27.83;24.85;;;15.50;99.90;;;;;;4589560;19;20069;-30
2022/10/23 14:51:41;;;;;;;26.23;22.55;;;15.70;99.90;;;;;;4589764;19;20025;-35
2022/10/23 14:53:13;;;;;;;25.48;21.80;;;15.80;99.90;;;;;;4592441;19;20043;-36
2022/10/23 14:54:44;;;;;;;27.48;24.48;;;15.90;99.90;;;;;;4589497;19;20035;-31
2022/10/23 14:56:15;;;;;;;31.73;27.00;;;16.00;99.90;;;;;;4588808;19;20018;-29
2022/10/23 14:57:46;;;;;;;29.80;26.67;;;16.00;99.90;;;;;;4592610;19;20512;-29
2022/10/23 14:59:18;;;;;;;27.45;24.52;;;16.10;99.90;;;;;;4588938;19;20014;-30
2022/10/23 15:00:57;;;;;;;23.98;21.40;;;16.20;99.90;;;;;;4589697;19;20102;-29
2022/10/23 15:02:28;;;;;;;23.65;21.17;;;16.20;99.90;;;;;;4591822;19;20018;-30
2022/10/23 15:04:00;;;;;;;21.30;19.02;;;16.30;99.90;;;;;;4591389;19;20058;-31
2022/10/23 15:05:31;;;;;;;20.50;18.38;;;16.30;99.90;;;;;;4591120;19;20354;-31
2022/10/23 15:07:03;;;;;;;21.58;19.38;;;16.30;99.90;;;;;;4591237;19;20387;-29
2022/10/23 15:08:34;;;;;;;20.35;18.27;;;16.30;99.90;;;;;;4590192;19;20014;-30
2022/10/23 15:10:05;;;;;;;22.10;19.85;;;16.40;99.90;;;;;;4591959;19;20033;-29
2022/10/23 15:11:40;;;;;;;21.10;18.85;;;16.40;99.90;;;;;;4590179;19;20033;-32
2022/10/23 15:13:16;;;;;;;21.25;18.90;;;16.40;99.90;;;;;;4591679;19;20015;-29
2022/10/23 15:14:47;;;;;;;21.05;18.95;;;16.40;99.90;;;;;;4590831;19;20388;-29
2022/10/23 15:16:19;;;;;;;20.83;18.63;;;16.50;99.90;;;;;;4589777;19;20007;-30
2022/10/23 15:17:50;;;;;;;20.48;18.38;;;16.50;99.90;;;;;;4590612;19;20345;-31
2022/10/23 15:19:21;;;;;;;19.60;17.58;;;16.50;99.90;;;;;;4589411;19;20018;-34
2022/10/23 15:20:53;;;;;;;20.75;17.77;;;16.50;99.90;;;;;;4591471;19;20534;-29
2022/10/23 15:22:24;;;;;;;18.48;16.58;;;16.50;99.90;;;;;;4590674;19;20029;-31
2022/10/23 15:23:55;;;;;;;19.65;17.65;;;16.50;99.90;;;;;;4591232;19;20439;-29
2022/10/23 15:25:26;;;;;;;19.40;17.33;;;16.50;99.90;;;;;;4590226;19;20018;-29
2022/10/23 15:26:59;;;;;;;18.58;16.60;;;16.50;99.90;;;;;;4593573;19;20038;-30
2022/10/23 15:30:17;;;;;;;17.52;15.73;;;16.60;99.90;;;;;;4593140;19;20017;-29
2022/10/23 15:31:55;;;;;;;19.88;17.77;;;16.60;99.90;;;;;;4591800;19;20014;-28
2022/10/23 15:33:26;;;;;;;25.70;22.33;;;16.60;99.90;;;;;;4591219;19;20031;-31
2022/10/23 15:34:58;;;;;;;28.58;24.50;;;16.60;99.90;;;;;;4591318;19;20018;-29
2022/10/23 15:36:30;;;;;;;32.03;27.73;;;16.60;99.90;;;;;;4590711;19;20389;-29
2022/10/23 15:38:02;;;;;;;37.60;30.63;;;16.60;99.90;;;;;;4589649;19;20011;-29
2022/10/23 15:39:34;;;;;;;48.17;38.17;;;16.60;99.90;;;;;;4588229;19;20021;-31
2022/10/23 15:41:12;;;;;;;;;;;16.60;99.90;;;;;;4591860;19;20380;-29
2022/10/23 15:42:44;;;;;;;48.03;40.95;;;16.60;99.90;;;;;;4590375;19;19926;-30
2022/10/23 15:44:16;;;;;;;46.35;40.63;;;16.60;99.90;;;;;;4589647;19;20085;-29
2022/10/23 15:45:47;;;;;;;42.08;37.22;;;16.60;99.90;;;;;;4591814;19;20050;-31
2022/10/23 15:47:18;;;;;;;48.55;40.28;;;16.60;99.90;;;;;;4589934;19;20044;-29
2022/10/23 15:48:49;;;;;;;46.05;40.35;;;16.60;99.90;;;;;;4588054;19;20507;-30
2022/10/23 15:50:21;;;;;;;42.92;38.38;;;16.60;99.90;;;;;;4587958;19;20356;-30
2022/10/23 15:51:52;;;;;;;41.50;36.83;;;16.60;99.90;;;;;;4591037;19;20014;-30
2022/10/23 15:53:23;;;;;;;41.85;37.22;;;16.60;99.90;;;;;;4590334;19;20035;-29
2022/10/23 15:54:55;;;;;;;40.33;35.33;;;16.60;99.90;;;;;;4589330;19;20497;-32
2022/10/23 15:56:26;;;;;;;;;;;16.60;99.90;;;;;;4591778;19;20011;-27
2022/10/23 15:58:02;;;;;;;46.70;39.58;;;16.60;99.90;;;;;;4590523;19;19919;-29
2022/10/23 15:59:34;;;;;;;52.22;42.58;;;16.60;99.90;;;;;;4589738;19;20011;-30
2022/10/23 16:09:10;;;;;;;50.53;43.53;;;16.60;99.90;;;;;;4590401;19;20001;-31
2022/10/23 16:10:44;;;;;;;54.63;45.35;;;16.60;99.90;;;;;;4593131;19;20010;-30
2022/10/23 16:12:16;;;;;;;55.40;46.78;;;16.60;99.90;;;;;;4590002;19;20022;-31
2022/10/23 16:13:46;;;;;;;;;;;16.60;99.90;;;;;;4591139;19;20019;-30
2022/10/23 16:15:17;;;;;;;48.30;41.03;;;16.60;99.90;;;;;;4591042;19;19934;-33
2022/10/23 16:16:49;;;;;;;49.97;41.75;;;16.60;99.90;;;;;;4591157;19;20034;-29
2022/10/23 16:18:21;;;;;;;52.10;40.75;;;16.60;99.90;;;;;;4589609;19;20468;-28
2022/10/23 16:20:11;;;;;;;47.15;40.53;;;16.60;99.90;;;;;;4589595;19;20031;-29
2022/10/23 16:21:42;;;;;;;51.55;42.92;;;16.60;99.90;;;;;;4591790;19;20010;-29
2022/10/23 16:23:14;;;;;;;54.17;43.63;;;16.70;99.90;;;;;;4592013;19;20042;-28
2022/10/23 16:24:45;;;;;;;;;;;16.70;99.90;;;;;;4591847;19;20353;-30
2022/10/23 16:26:17;;;;;;;49.73;42.03;;;16.80;99.90;;;;;;4591876;19;20249;-29
2022/10/23 16:27:48;;;;;;;44.92;39.60;;;16.90;99.90;;;;;;4591977;19;20477;-30
2022/10/23 16:29:22;;;;;;;43.90;37.70;;;16.90;99.90;;;;;;4590889;19;20051;-31
2022/10/23 16:32:55;;;;;;;43.80;38.17;;;17.00;99.90;;;;;;4591108;19;20044;-29
2022/10/23 16:34:38;;;;;;;45.63;40.20;;;17.20;99.90;;;;;;4589537;19;20117;-29
2022/10/23 16:36:14;;;;;;;47.13;41.22;;;17.20;99.90;;;;;;4588969;19;20022;-29
2022/10/23 16:37:45;;;;;;;48.35;42.50;;;17.20;99.90;;;;;;4590380;19;20014;-32
2022/10/23 16:39:17;;;;;;;51.28;43.40;;;17.20;99.90;;;;;;4589226;19;20014;-31
2022/10/23 16:40:52;;;;;;;52.30;44.75;;;17.30;99.90;;;;;;4590372;19;20031;-31
2022/10/23 16:42:23;;;;;;;47.85;42.00;;;17.30;99.90;;;;;;4591392;19;20135;-30
2022/10/23 16:43:54;;;;;;;46.47;41.55;;;17.30;99.90;;;;;;4591617;19;20023;-29
2022/10/23 16:45:25;;;;;;;48.55;42.72;;;17.30;99.90;;;;;;4589941;19;20116;-31
2022/10/23 16:47:15;;;;;;;47.60;42.42;;;17.30;99.90;;;;;;4592205;19;20586;-31
2022/10/23 16:48:47;;;;;;;46.47;40.85;;;17.30;99.90;;;;;;4590195;19;20026;-30
2022/10/23 16:50:18;;;;;;;44.10;39.13;;;17.30;99.90;;;;;;4590866;19;20019;-30
2022/10/23 16:51:50;;;;;;;45.35;40.38;;;17.30;99.90;;;;;;4591215;19;20007;-30
2022/10/23 16:53:27;;;;;;;;;;;17.30;99.90;;;;;;4590604;19;20095;-29
2022/10/23 16:54:58;;;;;;;45.13;40.22;;;17.30;99.90;;;;;;4589909;19;19918;-30
2022/10/23 16:56:29;;;;;;;44.83;38.33;;;17.30;99.90;;;;;;4592592;19;20014;-29
2022/10/23 16:58:01;;;;;;;;;;;17.30;99.90;;;;;;4591222;19;20027;-31
2022/10/23 16:59:33;;;;;;;38.85;34.40;;;17.40;99.90;;;;;;4589986;19;19917;-29
2022/10/23 17:01:05;;;;;;;40.72;36.33;;;17.30;99.90;;;;;;4589146;19;20010;-30
2022/10/23 17:02:36;;;;;;;39.75;35.45;;;17.30;99.90;;;;;;4591479;19;20029;-29
2022/10/23 17:04:08;;;;;;;42.78;36.63;;;17.30;99.90;;;;;;4590553;19;20014;-29
2022/10/23 17:05:39;;;;;;;36.08;31.77;;;17.30;99.90;;;;;;4593050;19;20358;-33
2022/10/23 17:07:11;;;;;;;35.92;32.03;;;17.30;99.90;;;;;;4590945;19;20007;-31
2022/10/23 17:08:44;;;;;;;35.97;32.08;;;17.30;99.90;;;;;;4591126;19;20010;-30
2022/10/23 17:10:15;;;;;;;42.58;35.30;;;17.20;99.90;;;;;;4589133;19;20011;-29
2022/10/23 17:11:46;;;;;;;38.53;33.20;;;17.20;99.90;;;;;;4592302;19;20014;-31
2022/10/23 17:13:18;;;;;;;33.97;30.30;;;17.20;99.90;;;;;;4590776;19;20027;-33
2022/10/23 17:14:49;;;;;;;34.75;30.95;;;17.20;99.90;;;;;;4591012;19;20018;-30
2022/10/23 17:16:23;;;;;;;;;;;17.10;99.90;;;;;;4590455;19;20029;-30
2022/10/23 17:17:56;;;;;;;37.20;31.95;;;17.10;99.90;;;;;;4589510;19;20011;-31
2022/10/23 17:19:30;;;;;;;36.00;32.10;;;17.10;99.90;;;;;;4589553;19;20059;-29
2022/10/23 17:21:01;;;;;;;35.72;31.02;;;17.10;99.90;;;;;;4590297;19;20086;-29
2022/10/23 17:22:34;;;;;;;39.08;33.00;;;17.10;99.90;;;;;;4589583;19;20498;-31
2022/10/23 17:24:06;;;;;;;41.03;34.03;;;17.00;99.90;;;;;;4588870;19;20023;-31
2022/10/23 17:25:40;;;;;;;40.58;35.40;;;17.00;99.90;;;;;;4591480;19;20014;-31
2022/10/23 17:27:12;;;;;;;41.58;36.20;;;17.00;99.90;;;;;;4589360;19;20010;-31
2022/10/23 17:28:43;;;;;;;45.92;38.15;;;17.00;99.90;;;;;;4588690;19;20483;-30
2022/10/23 17:30:15;;;;;;;47.20;40.40;;;17.00;99.90;;;;;;4590209;19;20018;-31
2022/10/23 17:31:47;;;;;;;48.92;41.13;;;17.00;99.90;;;;;;4590831;19;20084;-30
2022/10/23 17:40:21;;;;;;;57.42;44.03;;;17.00;99.90;;;;;;4590226;19;20491;-32
2022/10/23 17:41:52;;;;;;;53.45;44.30;;;17.00;99.90;;;;;;4591137;19;20018;-31
2022/10/23 17:43:24;;;;;;;53.05;45.47;;;17.00;99.90;;;;;;4590250;19;20010;-30
2022/10/23 17:44:55;;;;;;;58.13;47.85;;;17.00;99.90;;;;;;4590675;19;20362;-31
2022/10/23 17:46:28;;;;;;;62.13;52.25;;;17.00;99.90;;;;;;4589418;19;20017;-31
2022/10/23 17:47:59;;;;;;;62.25;52.40;;;17.00;99.90;;;;;;4590377;19;20010;-29
2022/10/23 17:51:21;;;;;;;74.63;60.45;;;16.90;99.90;;;;;;4591179;19;20023;-30
2022/10/23 17:52:52;;;;;;;79.38;63.80;;;17.00;99.90;;;;;;4589226;19;20373;-31
2022/10/23 17:54:24;;;;;;;69.85;56.17;;;17.00;99.90;;;;;;4589786;19;20014;-31
2022/10/23 17:55:55;;;;;;;74.95;58.90;;;17.00;99.90;;;;;;4588155;19;20010;-31
2022/10/23 17:57:26;;;;;;;71.55;57.45;;;17.00;99.90;;;;;;4591002;19;20018;-32
2022/10/23 17:59:03;;;;;;;72.20;58.35;;;16.90;99.90;;;;;;4591020;19;20038;-32
2022/10/23 18:00:37;;;;;;;75.05;60.38;;;17.00;99.90;;;;;;4590482;19;20018;-30
2022/10/23 18:02:11;;;;;;;69.88;56.80;;;16.90;99.90;;;;;;4586364;19;20039;-31
2022/10/23 18:03:43;;;;;;;68.97;55.80;;;16.90;99.90;;;;;;4586314;19;20368;-32
2022/10/23 18:05:14;;;;;;;66.47;54.28;;;16.90;99.90;;;;;;4589161;19;20020;-31
2022/10/23 18:06:47;;;;;;;67.47;54.95;;;16.90;99.90;;;;;;4589126;19;20090;-30
2022/10/23 18:08:19;;;;;;;67.40;54.50;;;16.90;99.90;;;;;;4588012;19;20378;-29
2022/10/23 18:09:53;;;;;;;61.35;50.95;;;16.90;99.90;;;;;;4588300;19;20038;-30
2022/10/23 18:11:27;;;;;;;59.25;50.13;;;16.80;99.90;;;;;;4587273;19;20075;-30
2022/10/23 18:12:58;;;;;;;62.63;51.85;;;16.90;99.90;;;;;;4586993;19;20013;-31
2022/10/23 18:14:30;;;;;;;61.75;50.17;;;16.90;99.90;;;;;;4589412;19;20022;-31
2022/10/23 18:16:02;;;;;;;59.30;49.58;;;16.80;99.90;;;;;;4589335;19;20405;-30
2022/10/23 18:17:34;;;;;;;59.33;49.88;;;16.80;99.90;;;;;;4590748;19;20660;-30
2022/10/23 18:19:16;;;;;;;59.47;49.40;;;16.80;99.90;;;;;;4590538;19;20479;-30
2022/10/23 18:20:47;;;;;;;;;;;16.90;99.90;;;;;;4591384;19;20010;-30
2022/10/23 18:22:19;;;;;;;53.67;44.70;;;16.80;99.90;;;;;;4590181;19;19911;-30
2022/10/23 18:23:51;;;;;;;51.92;44.05;;;16.80;99.90;;;;;;4588433;19;20019;-31
2022/10/23 18:25:22;;;;;;;50.95;41.42;;;16.80;99.90;;;;;;4587997;19;20034;-30
2022/10/23 18:26:54;;;;;;;48.33;41.78;;;16.80;99.90;;;;;;4588380;19;20078;-29
2022/10/23 18:28:26;;;;;;;47.00;41.75;;;16.80;99.90;;;;;;4588317;19;20360;-30
2022/10/23 18:38:51;;;;;;;46.50;37.70;;;16.80;99.90;;;;;;4589042;19;19998;-31
2022/10/23 18:42:31;;;;;;;44.15;36.55;;;16.80;99.90;;;;;;4588986;19;20482;-31
2022/10/23 18:44:02;;;;;;;;;;;16.80;99.90;;;;;;4590173;19;20082;-31
2022/10/23 18:45:34;;;;;;;44.47;36.85;;;16.80;99.90;;;;;;4590210;19;20348;-32
2022/10/23 18:47:05;;;;;;;48.53;37.47;;;16.80;99.90;;;;;;4590102;19;20022;-32
2022/10/23 18:48:36;;;;;;;41.67;35.70;;;16.80;99.90;;;;;;4588952;19;20507;-31
2022/10/23 18:50:08;;;;;;;44.45;37.38;;;16.80;99.90;;;;;;4590583;19;20070;-36
2022/10/23 18:51:39;;;;;;;41.88;34.97;;;16.80;99.90;;;;;;4589413;19;20011;-35
2022/10/23 18:53:12;;;;;;;39.65;34.03;;;16.80;99.90;;;;;;4590320;19;20034;-32
2022/10/23 18:54:43;;;;;;;43.50;35.00;;;16.70;99.90;;;;;;4589122;19;20022;-29
2022/10/23 18:56:15;;;;;;;44.63;36.00;;;16.70;99.90;;;;;;4587532;19;20406;-34
2022/10/23 18:57:46;;;;;;;41.28;35.65;;;16.80;99.90;;;;;;4588664;19;20028;-31
2022/10/23 18:59:18;;;;;;;41.63;36.42;;;16.70;99.90;;;;;;4588117;19;20015;-30
2022/10/23 19:00:48;;;;;;;43.47;36.75;;;16.70;99.90;;;;;;4586890;19;20503;-32
2022/10/23 19:02:20;;;;;;;46.42;37.65;;;16.70;99.90;;;;;;4589186;19;20018;-30
2022/10/23 19:03:52;;;;;;;41.47;36.97;;;16.70;99.90;;;;;;4589185;19;20019;-30
2022/10/23 19:05:23;;;;;;;46.33;38.13;;;16.70;99.90;;;;;;4586200;19;20015;-30
2022/10/23 19:06:54;;;;;;;44.47;38.75;;;16.70;99.90;;;;;;4588554;19;20521;-31
2022/10/23 19:08:26;;;;;;;43.42;37.28;;;16.70;99.90;;;;;;4589420;19;20062;-31
2022/10/23 19:09:57;;;;;;;45.00;37.35;;;16.70;99.90;;;;;;4589334;19;20006;-30
2022/10/23 19:11:28;;;;;;;43.50;36.63;;;16.70;99.90;;;;;;4588303;19;20015;-31
2022/10/23 19:13:00;;;;;;;44.60;37.80;;;16.70;99.90;;;;;;4585990;19;20084;-30
2022/10/23 19:14:31;;;;;;;44.58;37.78;;;16.70;99.90;;;;;;4587966;19;20007;-31
2022/10/23 19:16:04;;;;;;;44.60;38.58;;;16.70;99.90;;;;;;4586375;19;20014;-31
2022/10/23 19:20:27;;;;;;;43.80;36.55;;;16.70;99.90;;;;;;4588177;19;20093;-31
2022/10/23 19:21:58;;;;;;;42.70;36.58;;;16.70;99.90;;;;;;4587950;19;20021;-30
2022/10/23 19:23:30;;;;;;;41.20;35.80;;;16.70;99.90;;;;;;4587366;19;20018;-31
2022/10/23 19:25:10;;;;;;;43.92;36.40;;;16.80;99.90;;;;;;4590216;19;20019;-31
2022/10/23 19:26:41;;;;;;;39.20;33.78;;;16.80;99.90;;;;;;4591316;19;20018;-33
2022/10/23 19:28:12;;;;;;;41.67;35.90;;;16.80;99.90;;;;;;4591650;19;20019;-31
2022/10/23 19:29:46;;;;;;;39.10;33.92;;;16.80;99.90;;;;;;4589285;19;20029;-33
2022/10/23 19:31:17;;;;;;;41.67;34.88;;;16.80;99.90;;;;;;4589637;19;20035;-30
2022/10/23 19:32:48;;;;;;;41.00;34.42;;;16.80;99.90;;;;;;4591191;19;20025;-30
2022/10/23 19:34:21;;;;;;;;;;;16.80;99.90;;;;;;4591391;19;20019;-31
2022/10/23 19:35:52;;;;;;;40.65;35.08;;;16.80;99.90;;;;;;4590935;19;19918;-30
2022/10/23 19:37:24;;;;;;;;;;;16.80;99.90;;;;;;4591768;19;20025;-31
2022/10/23 19:38:55;;;;;;;40.93;34.67;;;16.70;99.90;;;;;;4591100;19;19918;-31
2022/10/23 19:40:26;;;;;;;41.97;34.03;;;16.80;99.90;;;;;;4588835;19;20082;-31
2022/10/23 19:41:57;;;;;;;38.40;32.92;;;16.80;99.90;;;;;;4590003;19;20396;-30
2022/10/23 19:45:14;;;;;;;34.05;30.10;;;16.70;99.90;;;;;;4591196;19;20071;-31
2022/10/23 19:46:46;;;;;;;32.83;29.35;;;16.80;99.90;;;;;;4589684;19;20140;-31
2022/10/23 19:48:16;;;;;;;33.05;29.48;;;16.70;99.90;;;;;;4591402;19;20033;-30
2022/10/23 19:49:50;;;;;;;;;;;16.70;99.90;;;;;;4591789;19;20559;-30
2022/10/23 19:51:23;;;;;;;32.05;28.55;;;16.70;99.90;;;;;;4591464;19;20321;-30
2022/10/23 19:52:54;;;;;;;33.60;27.92;;;16.70;99.90;;;;;;4589977;19;20021;-31
2022/10/23 19:54:26;;;;;;;31.92;28.42;;;16.70;99.90;;;;;;4590050;19;20010;-29
2022/10/23 19:56:01;;;;;;;32.65;29.25;;;16.70;99.90;;;;;;4590097;19;20026;-31
2022/10/23 19:57:34;;;;;;;33.00;29.42;;;16.70;99.90;;;;;;4591142;19;20025;-31
2022/10/23 19:59:05;;;;;;;;;;;16.70;99.90;;;;;;4594181;19;20039;-35
2022/10/23 20:00:36;;;;;;;35.35;29.25;;;16.70;99.90;;;;;;4592364;19;19925;-30
2022/10/23 20:02:08;;;;;;;39.85;32.53;;;16.70;99.90;;;;;;4594076;19;20052;-31
2022/10/23 20:03:39;;;;;;;32.60;28.90;;;16.70;99.90;;;;;;4592942;19;20015;-30
2022/10/23 20:05:11;;;;;;;33.58;29.15;;;16.70;99.90;;;;;;4592024;19;20015;-30
2022/10/23 20:06:43;;;;;;;34.25;30.60;;;16.70;99.90;;;;;;4591781;19;20035;-31
2022/10/23 20:08:14;;;;;;;34.97;30.15;;;16.70;99.90;;;;;;4592570;19;20011;-33
2022/10/23 20:09:45;;;;;;;35.38;31.58;;;16.70;99.90;;;;;;4591860;19;20077;-31
2022/10/23 20:11:19;;;;;;;37.30;32.05;;;16.70;99.90;;;;;;4592452;19;20015;-30
2022/10/23 20:12:51;;;;;;;37.33;31.92;;;16.70;99.90;;;;;;4591273;19;20015;-28
2022/10/23 20:14:24;;;;;;;35.90;30.55;;;16.70;99.90;;;;;;4593812;19;20013;-31
2022/10/23 20:15:57;;;;;;;33.83;29.85;;;16.70;99.90;;;;;;4591062;19;20022;-30
2022/10/23 20:17:28;;;;;;;35.63;31.83;;;16.70;99.90;;;;;;4593722;19;20031;-31
2022/10/23 20:19:02;;;;;;;35.67;31.80;;;16.70;99.90;;;;;;4592279;19;20356;-31
2022/10/23 20:20:33;;;;;;;35.22;30.33;;;16.70;99.90;;;;;;4592598;19;20066;-30
2022/10/23 20:22:04;;;;;;;33.38;29.77;;;16.70;99.90;;;;;;4592063;19;20015;-31
2022/10/23 20:23:36;;;;;;;35.88;31.38;;;16.70;99.90;;;;;;4591244;19;20034;-33
2022/10/23 20:25:16;;;;;;;35.28;30.13;;;16.70;99.90;;;;;;4593250;19;20022;-32